sensor_id;sensor_type;location;lat;lon;timestamp;P1;durP1;ratioP1;P2;durP2;ratioP2
29302;SDS011;60019;45.556;12.004;2022-09-30T00:03:34;3.63;;;1.85;;
29302;SDS011;60019;45.556;12.004;2022-09-30T00:09:36;3.45;;;1.77;;
29302;SDS011;60019;45.556;12.004;2022-09-30T00:15:38;3.47;;;1.90;;
29302;SDS011;60019;45.556;12.004;2022-09-30T00:21:40;6.70;;;2.08;;
29302;SDS011;60019;45.556;12.004;2022-09-30T00:27:42;4.30;;;1.95;;
29302;SDS011;60019;45.556;12.004;2022-09-30T00:33:44;3.20;;;2.08;;
29302;SDS011;60019;45.556;12.004;2022-09-30T00:40:06;2.30;;;1.60;;
29302;SDS011;60019;45.556;12.004;2022-09-30T00:46:31;2.08;;;1.77;;
29302;SDS011;60019;45.556;12.004;2022-09-30T00:52:32;1.80;;;1.50;;
29302;SDS011;60019;45.556;12.004;2022-09-30T00:58:38;3.47;;;1.80;;
29302;SDS011;60019;45.556;12.004;2022-09-30T01:04:41;1.85;;;1.67;;
29302;SDS011;60019;45.556;12.004;2022-09-30T01:10:44;4.75;;;2.03;;
29302;SDS011;60019;45.556;12.004;2022-09-30T01:35:36;2.83;;;1.63;;
29302;SDS011;60019;45.556;12.004;2022-09-30T01:47:50;1.52;;;1.35;;
29302;SDS011;60019;45.556;12.004;2022-09-30T01:53:57;2.63;;;1.52;;
29302;SDS011;60019;45.556;12.004;2022-09-30T02:00:07;2.38;;;1.42;;
29302;SDS011;60019;45.556;12.004;2022-09-30T02:06:17;1.83;;;1.73;;
29302;SDS011;60019;45.556;12.004;2022-09-30T02:12:20;2.13;;;1.70;;
29302;SDS011;60019;45.556;12.004;2022-09-30T02:24:26;4.70;;;2.00;;
29302;SDS011;60019;45.556;12.004;2022-09-30T02:30:28;3.17;;;2.22;;
29302;SDS011;60019;45.556;12.004;2022-09-30T02:36:31;6.05;;;2.80;;
29302;SDS011;60019;45.556;12.004;2022-09-30T02:42:34;2.92;;;2.55;;
29302;SDS011;60019;45.556;12.004;2022-09-30T02:48:47;3.25;;;2.95;;
29302;SDS011;60019;45.556;12.004;2022-09-30T03:01:10;4.70;;;2.67;;
29302;SDS011;60019;45.556;12.004;2022-09-30T03:07:13;2.45;;;2.00;;
29302;SDS011;60019;45.556;12.004;2022-09-30T03:49:54;1.98;;;1.80;;
29302;SDS011;60019;45.556;12.004;2022-09-30T03:55:56;2.75;;;2.15;;
29302;SDS011;60019;45.556;12.004;2022-09-30T04:01:58;3.90;;;2.47;;
29302;SDS011;60019;45.556;12.004;2022-09-30T04:08:00;2.85;;;2.22;;
29302;SDS011;60019;45.556;12.004;2022-09-30T04:14:02;2.63;;;1.85;;
29302;SDS011;60019;45.556;12.004;2022-09-30T04:20:03;3.67;;;1.67;;
29302;SDS011;60019;45.556;12.004;2022-09-30T04:26:06;2.17;;;1.77;;
29302;SDS011;60019;45.556;12.004;2022-09-30T04:32:08;1.65;;;1.45;;
29302;SDS011;60019;45.556;12.004;2022-09-30T04:38:09;2.88;;;1.60;;
29302;SDS011;60019;45.556;12.004;2022-09-30T04:44:11;3.45;;;1.80;;
29302;SDS011;60019;45.556;12.004;2022-09-30T04:50:13;2.83;;;1.77;;
29302;SDS011;60019;45.556;12.004;2022-09-30T04:56:15;3.17;;;1.60;;
29302;SDS011;60019;45.556;12.004;2022-09-30T05:02:17;3.28;;;1.80;;
29302;SDS011;60019;45.556;12.004;2022-09-30T05:08:19;3.63;;;1.60;;
29302;SDS011;60019;45.556;12.004;2022-09-30T05:14:22;2.78;;;2.00;;
29302;SDS011;60019;45.556;12.004;2022-09-30T05:20:24;3.47;;;2.40;;
29302;SDS011;60019;45.556;12.004;2022-09-30T05:26:25;4.00;;;2.90;;
29302;SDS011;60019;45.556;12.004;2022-09-30T05:32:27;2.40;;;2.03;;
29302;SDS011;60019;45.556;12.004;2022-09-30T05:38:29;2.65;;;2.30;;
29302;SDS011;60019;45.556;12.004;2022-09-30T05:44:31;3.60;;;2.35;;
29302;SDS011;60019;45.556;12.004;2022-09-30T05:50:33;4.25;;;1.90;;
29302;SDS011;60019;45.556;12.004;2022-09-30T05:56:35;3.95;;;2.30;;
29302;SDS011;60019;45.556;12.004;2022-09-30T06:02:38;2.20;;;1.65;;
29302;SDS011;60019;45.556;12.004;2022-09-30T06:08:41;5.00;;;1.75;;
29302;SDS011;60019;45.556;12.004;2022-09-30T06:14:43;3.60;;;1.90;;
29302;SDS011;60019;45.556;12.004;2022-09-30T06:20:45;3.08;;;1.80;;
29302;SDS011;60019;45.556;12.004;2022-09-30T06:26:47;2.85;;;1.70;;
29302;SDS011;60019;45.556;12.004;2022-09-30T06:32:48;2.00;;;1.65;;
29302;SDS011;60019;45.556;12.004;2022-09-30T06:38:51;2.97;;;1.70;;
29302;SDS011;60019;45.556;12.004;2022-09-30T06:44:54;2.75;;;1.55;;
29302;SDS011;60019;45.556;12.004;2022-09-30T06:50:56;2.03;;;1.25;;
29302;SDS011;60019;45.556;12.004;2022-09-30T06:56:58;1.92;;;1.70;;
29302;SDS011;60019;45.556;12.004;2022-09-30T07:03:00;8.00;;;1.45;;
29302;SDS011;60019;45.556;12.004;2022-09-30T07:09:01;3.13;;;1.63;;
29302;SDS011;60019;45.556;12.004;2022-09-30T07:15:03;3.10;;;1.83;;
29302;SDS011;60019;45.556;12.004;2022-09-30T07:21:05;4.55;;;1.88;;
29302;SDS011;60019;45.556;12.004;2022-09-30T07:27:07;2.85;;;1.38;;
29302;SDS011;60019;45.556;12.004;2022-09-30T07:33:09;4.25;;;1.92;;
29302;SDS011;60019;45.556;12.004;2022-09-30T07:39:16;2.15;;;1.65;;
29302;SDS011;60019;45.556;12.004;2022-09-30T07:45:17;3.53;;;1.88;;
29302;SDS011;60019;45.556;12.004;2022-09-30T07:51:24;3.28;;;1.58;;
29302;SDS011;60019;45.556;12.004;2022-09-30T07:57:27;2.78;;;1.35;;
29302;SDS011;60019;45.556;12.004;2022-09-30T08:03:28;2.42;;;1.60;;
29302;SDS011;60019;45.556;12.004;2022-09-30T08:09:30;2.42;;;1.60;;
29302;SDS011;60019;45.556;12.004;2022-09-30T08:15:32;4.00;;;1.55;;
29302;SDS011;60019;45.556;12.004;2022-09-30T08:21:33;3.50;;;1.60;;
29302;SDS011;60019;45.556;12.004;2022-09-30T08:27:35;6.60;;;1.50;;
29302;SDS011;60019;45.556;12.004;2022-09-30T08:33:37;12.05;;;2.00;;
29302;SDS011;60019;45.556;12.004;2022-09-30T08:39:39;3.10;;;1.55;;
29302;SDS011;60019;45.556;12.004;2022-09-30T08:51:52;6.68;;;2.35;;
29302;SDS011;60019;45.556;12.004;2022-09-30T08:57:54;7.60;;;1.77;;
29302;SDS011;60019;45.556;12.004;2022-09-30T09:03:57;9.15;;;2.90;;
29302;SDS011;60019;45.556;12.004;2022-09-30T09:22:12;8.07;;;2.65;;
29302;SDS011;60019;45.556;12.004;2022-09-30T09:34:29;8.05;;;2.30;;
29302;SDS011;60019;45.556;12.004;2022-09-30T10:05:22;7.05;;;2.08;;
29302;SDS011;60019;45.556;12.004;2022-09-30T10:11:26;5.53;;;2.50;;
29302;SDS011;60019;45.556;12.004;2022-09-30T10:17:30;6.28;;;1.95;;
29302;SDS011;60019;45.556;12.004;2022-09-30T10:23:39;7.43;;;2.00;;
29302;SDS011;60019;45.556;12.004;2022-09-30T10:29:45;8.07;;;2.13;;
29302;SDS011;60019;45.556;12.004;2022-09-30T10:35:55;5.60;;;1.90;;
29302;SDS011;60019;45.556;12.004;2022-09-30T10:48:12;10.50;;;1.93;;
29302;SDS011;60019;45.556;12.004;2022-09-30T11:06:38;5.60;;;2.20;;
29302;SDS011;60019;45.556;12.004;2022-09-30T11:12:48;9.98;;;2.75;;
29302;SDS011;60019;45.556;12.004;2022-09-30T11:19:00;6.03;;;1.83;;
29302;SDS011;60019;45.556;12.004;2022-09-30T11:25:04;5.43;;;2.50;;
29302;SDS011;60019;45.556;12.004;2022-09-30T11:56:00;5.35;;;2.47;;
29302;SDS011;60019;45.556;12.004;2022-09-30T12:02:10;4.22;;;2.03;;
29302;SDS011;60019;45.556;12.004;2022-09-30T12:08:19;4.07;;;2.13;;
29302;SDS011;60019;45.556;12.004;2022-09-30T12:14:27;5.85;;;1.90;;
29302;SDS011;60019;45.556;12.004;2022-09-30T12:20:32;3.78;;;1.55;;
29302;SDS011;60019;45.556;12.004;2022-09-30T12:26:35;3.88;;;1.70;;
29302;SDS011;60019;45.556;12.004;2022-09-30T12:51:25;3.25;;;1.63;;
29302;SDS011;60019;45.556;12.004;2022-09-30T12:57:31;2.03;;;1.33;;
29302;SDS011;60019;45.556;12.004;2022-09-30T13:09:58;5.18;;;1.73;;
29302;SDS011;60019;45.556;12.004;2022-09-30T13:16:00;2.35;;;1.40;;
29302;SDS011;60019;45.556;12.004;2022-09-30T13:28:30;1.33;;;1.23;;
29302;SDS011;60019;45.556;12.004;2022-09-30T13:34:48;2.63;;;1.73;;
29302;SDS011;60019;45.556;12.004;2022-09-30T13:41:00;3.42;;;1.58;;
29302;SDS011;60019;45.556;12.004;2022-09-30T13:47:13;2.72;;;1.50;;
29302;SDS011;60019;45.556;12.004;2022-09-30T14:24:26;2.38;;;1.40;;
29302;SDS011;60019;45.556;12.004;2022-09-30T14:30:31;2.55;;;1.40;;
29302;SDS011;60019;45.556;12.004;2022-09-30T14:36:34;1.52;;;1.25;;
29302;SDS011;60019;45.556;12.004;2022-09-30T14:42:36;2.97;;;1.75;;
29302;SDS011;60019;45.556;12.004;2022-09-30T14:48:39;2.20;;;1.45;;
29302;SDS011;60019;45.556;12.004;2022-09-30T14:54:45;3.63;;;1.30;;
29302;SDS011;60019;45.556;12.004;2022-09-30T15:00:57;3.22;;;1.52;;
29302;SDS011;60019;45.556;12.004;2022-09-30T15:07:01;2.40;;;1.63;;
29302;SDS011;60019;45.556;12.004;2022-09-30T15:13:05;2.50;;;1.52;;
29302;SDS011;60019;45.556;12.004;2022-09-30T15:19:20;1.70;;;1.23;;
29302;SDS011;60019;45.556;12.004;2022-09-30T15:25:22;3.92;;;1.73;;
29302;SDS011;60019;45.556;12.004;2022-09-30T15:31:28;3.72;;;1.33;;
29302;SDS011;60019;45.556;12.004;2022-09-30T15:37:30;3.38;;;1.75;;
29302;SDS011;60019;45.556;12.004;2022-09-30T15:43:34;2.63;;;1.60;;
29302;SDS011;60019;45.556;12.004;2022-09-30T15:55:41;3.63;;;1.95;;
29302;SDS011;60019;45.556;12.004;2022-09-30T16:01:47;3.38;;;2.05;;
29302;SDS011;60019;45.556;12.004;2022-09-30T16:07:49;4.53;;;2.45;;
29302;SDS011;60019;45.556;12.004;2022-09-30T16:13:51;4.43;;;2.35;;
29302;SDS011;60019;45.556;12.004;2022-09-30T16:19:54;6.72;;;2.50;;
29302;SDS011;60019;45.556;12.004;2022-09-30T16:32:17;3.85;;;2.60;;
29302;SDS011;60019;45.556;12.004;2022-09-30T16:38:19;4.18;;;2.55;;
29302;SDS011;60019;45.556;12.004;2022-09-30T16:44:20;6.28;;;2.83;;
29302;SDS011;60019;45.556;12.004;2022-09-30T16:57:02;8.07;;;2.55;;
29302;SDS011;60019;45.556;12.004;2022-09-30T17:03:04;4.38;;;2.10;;
29302;SDS011;60019;45.556;12.004;2022-09-30T17:09:06;3.97;;;2.33;;
29302;SDS011;60019;45.556;12.004;2022-09-30T17:15:08;2.75;;;1.90;;
29302;SDS011;60019;45.556;12.004;2022-09-30T17:21:11;10.60;;;3.00;;
29302;SDS011;60019;45.556;12.004;2022-09-30T17:27:12;4.53;;;2.85;;
29302;SDS011;60019;45.556;12.004;2022-09-30T17:33:14;4.13;;;1.90;;
29302;SDS011;60019;45.556;12.004;2022-09-30T17:39:17;5.90;;;1.75;;
29302;SDS011;60019;45.556;12.004;2022-09-30T17:45:19;3.90;;;2.10;;
29302;SDS011;60019;45.556;12.004;2022-09-30T17:51:21;3.10;;;2.17;;
29302;SDS011;60019;45.556;12.004;2022-09-30T17:57:22;4.22;;;2.08;;
29302;SDS011;60019;45.556;12.004;2022-09-30T18:03:24;4.00;;;2.15;;
29302;SDS011;60019;45.556;12.004;2022-09-30T18:09:27;7.68;;;5.82;;
29302;SDS011;60019;45.556;12.004;2022-09-30T18:15:29;8.43;;;5.32;;
29302;SDS011;60019;45.556;12.004;2022-09-30T18:21:32;7.05;;;4.50;;
29302;SDS011;60019;45.556;12.004;2022-09-30T18:27:34;6.70;;;3.63;;
29302;SDS011;60019;45.556;12.004;2022-09-30T18:33:36;4.25;;;2.92;;
29302;SDS011;60019;45.556;12.004;2022-09-30T18:39:37;5.38;;;2.97;;
29302;SDS011;60019;45.556;12.004;2022-09-30T18:45:39;2.80;;;2.50;;
29302;SDS011;60019;45.556;12.004;2022-09-30T18:51:46;2.83;;;2.25;;
29302;SDS011;60019;45.556;12.004;2022-09-30T18:57:48;4.20;;;2.13;;
29302;SDS011;60019;45.556;12.004;2022-09-30T19:03:50;3.22;;;2.17;;
29302;SDS011;60019;45.556;12.004;2022-09-30T19:09:52;2.90;;;2.38;;
29302;SDS011;60019;45.556;12.004;2022-09-30T19:15:54;2.33;;;1.92;;
29302;SDS011;60019;45.556;12.004;2022-09-30T19:21:55;4.05;;;2.63;;
29302;SDS011;60019;45.556;12.004;2022-09-30T19:28:00;3.20;;;2.88;;
29302;SDS011;60019;45.556;12.004;2022-09-30T19:34:03;5.28;;;3.58;;
29302;SDS011;60019;45.556;12.004;2022-09-30T19:40:05;4.57;;;3.58;;
29302;SDS011;60019;45.556;12.004;2022-09-30T19:46:09;6.90;;;3.63;;
29302;SDS011;60019;45.556;12.004;2022-09-30T19:52:11;4.45;;;3.30;;
29302;SDS011;60019;45.556;12.004;2022-09-30T19:58:16;3.67;;;3.25;;
29302;SDS011;60019;45.556;12.004;2022-09-30T20:04:18;4.07;;;2.50;;
29302;SDS011;60019;45.556;12.004;2022-09-30T20:10:20;4.15;;;2.50;;
29302;SDS011;60019;45.556;12.004;2022-09-30T20:16:23;4.53;;;3.05;;
29302;SDS011;60019;45.556;12.004;2022-09-30T20:22:25;50.28;;;22.23;;
29302;SDS011;60019;45.556;12.004;2022-09-30T20:28:29;50.75;;;25.55;;
29302;SDS011;60019;45.556;12.004;2022-09-30T20:34:33;31.45;;;16.13;;
29302;SDS011;60019;45.556;12.004;2022-09-30T20:40:35;23.15;;;12.35;;
29302;SDS011;60019;45.556;12.004;2022-09-30T20:46:37;17.45;;;9.48;;
29302;SDS011;60019;45.556;12.004;2022-09-30T20:52:41;11.77;;;6.93;;
29302;SDS011;60019;45.556;12.004;2022-09-30T20:58:47;10.73;;;6.30;;
29302;SDS011;60019;45.556;12.004;2022-09-30T21:04:49;9.13;;;5.00;;
29302;SDS011;60019;45.556;12.004;2022-09-30T21:10:52;10.88;;;4.15;;
29302;SDS011;60019;45.556;12.004;2022-09-30T21:16:55;5.70;;;3.78;;
29302;SDS011;60019;45.556;12.004;2022-09-30T21:22:57;5.75;;;3.22;;
29302;SDS011;60019;45.556;12.004;2022-09-30T21:28:59;5.85;;;3.22;;
29302;SDS011;60019;45.556;12.004;2022-09-30T21:35:02;6.05;;;3.05;;
29302;SDS011;60019;45.556;12.004;2022-09-30T21:41:06;3.22;;;2.50;;
29302;SDS011;60019;45.556;12.004;2022-09-30T21:47:08;9.35;;;2.47;;
29302;SDS011;60019;45.556;12.004;2022-09-30T21:53:12;4.05;;;2.45;;
29302;SDS011;60019;45.556;12.004;2022-09-30T21:59:14;3.78;;;2.58;;
29302;SDS011;60019;45.556;12.004;2022-09-30T22:05:16;2.70;;;1.85;;
29302;SDS011;60019;45.556;12.004;2022-09-30T22:11:20;3.47;;;2.30;;
29302;SDS011;60019;45.556;12.004;2022-09-30T22:17:24;3.00;;;2.30;;
29302;SDS011;60019;45.556;12.004;2022-09-30T22:23:27;2.08;;;1.88;;
29302;SDS011;60019;45.556;12.004;2022-09-30T22:29:29;4.03;;;2.80;;
29302;SDS011;60019;45.556;12.004;2022-09-30T22:35:31;3.20;;;2.33;;
29302;SDS011;60019;45.556;12.004;2022-09-30T22:41:52;5.05;;;2.90;;
29302;SDS011;60019;45.556;12.004;2022-09-30T22:47:54;3.47;;;2.75;;
29302;SDS011;60019;45.556;12.004;2022-09-30T22:53:58;4.43;;;2.85;;
29302;SDS011;60019;45.556;12.004;2022-09-30T23:00:00;2.40;;;2.20;;
29302;SDS011;60019;45.556;12.004;2022-09-30T23:06:03;3.08;;;2.20;;
29302;SDS011;60019;45.556;12.004;2022-09-30T23:12:05;3.38;;;2.63;;
29302;SDS011;60019;45.556;12.004;2022-09-30T23:18:07;2.38;;;2.17;;
29302;SDS011;60019;45.556;12.004;2022-09-30T23:24:09;3.65;;;2.55;;
29302;SDS011;60019;45.556;12.004;2022-09-30T23:30:11;3.13;;;2.60;;
29302;SDS011;60019;45.556;12.004;2022-09-30T23:36:17;3.08;;;1.95;;
29302;SDS011;60019;45.556;12.004;2022-09-30T23:42:20;2.50;;;1.80;;
29302;SDS011;60019;45.556;12.004;2022-09-30T23:48:22;1.50;;;1.40;;
29302;SDS011;60019;45.556;12.004;2022-09-30T23:54:23;2.10;;;1.90;;
